sensor_id;sensor_type;location;lat;lon;timestamp;temperature;humidity
10883;DHT22;5494;51.796;10.952;2023-03-23T00:02:40;13.40;99.90
10883;DHT22;5494;51.796;10.952;2023-03-23T00:05:27;13.40;99.90
10883;DHT22;5494;51.796;10.952;2023-03-23T00:08:16;13.40;99.90
10883;DHT22;5494;51.796;10.952;2023-03-23T00:11:04;13.30;99.90
10883;DHT22;5494;51.796;10.952;2023-03-23T00:13:52;13.30;99.90
10883;DHT22;5494;51.796;10.952;2023-03-23T00:16:40;13.30;99.90
10883;DHT22;5494;51.796;10.952;2023-03-23T00:19:28;13.30;99.90
10883;DHT22;5494;51.796;10.952;2023-03-23T00:22:16;13.30;99.90
10883;DHT22;5494;51.796;10.952;2023-03-23T00:25:07;13.30;99.90
10883;DHT22;5494;51.796;10.952;2023-03-23T00:27:55;13.30;99.90
10883;DHT22;5494;51.796;10.952;2023-03-23T00:30:42;13.30;99.90
10883;DHT22;5494;51.796;10.952;2023-03-23T00:33:32;13.30;99.90
10883;DHT22;5494;51.796;10.952;2023-03-23T00:36:24;13.30;99.90
10883;DHT22;5494;51.796;10.952;2023-03-23T00:39:12;13.30;99.90
10883;DHT22;5494;51.796;10.952;2023-03-23T00:42:03;13.30;99.90
10883;DHT22;5494;51.796;10.952;2023-03-23T00:44:51;13.20;99.90
10883;DHT22;5494;51.796;10.952;2023-03-23T00:47:45;13.20;99.90
10883;DHT22;5494;51.796;10.952;2023-03-23T00:50:36;13.20;99.90
10883;DHT22;5494;51.796;10.952;2023-03-23T00:53:24;13.10;99.90
10883;DHT22;5494;51.796;10.952;2023-03-23T00:56:11;13.10;99.90
10883;DHT22;5494;51.796;10.952;2023-03-23T00:59:02;13.10;99.90
10883;DHT22;5494;51.796;10.952;2023-03-23T01:01:50;13.10;99.90
10883;DHT22;5494;51.796;10.952;2023-03-23T01:04:38;13.10;99.90
10883;DHT22;5494;51.796;10.952;2023-03-23T01:07:25;13.20;99.90
10883;DHT22;5494;51.796;10.952;2023-03-23T01:10:14;13.10;99.90
10883;DHT22;5494;51.796;10.952;2023-03-23T01:13:03;13.10;99.90
10883;DHT22;5494;51.796;10.952;2023-03-23T01:15:52;13.20;99.90
10883;DHT22;5494;51.796;10.952;2023-03-23T01:18:39;13.20;99.90
10883;DHT22;5494;51.796;10.952;2023-03-23T01:21:27;13.20;99.90
10883;DHT22;5494;51.796;10.952;2023-03-23T01:24:14;13.10;99.90
10883;DHT22;5494;51.796;10.952;2023-03-23T01:27:01;13.10;99.90
10883;DHT22;5494;51.796;10.952;2023-03-23T01:29:52;13.10;99.90
10883;DHT22;5494;51.796;10.952;2023-03-23T01:32:40;13.10;99.90
10883;DHT22;5494;51.796;10.952;2023-03-23T01:35:28;13.20;99.90
10883;DHT22;5494;51.796;10.952;2023-03-23T01:38:15;13.30;99.90
10883;DHT22;5494;51.796;10.952;2023-03-23T01:41:03;13.30;99.90
10883;DHT22;5494;51.796;10.952;2023-03-23T01:44:03;13.20;99.90
10883;DHT22;5494;51.796;10.952;2023-03-23T01:47:03;13.20;99.90
10883;DHT22;5494;51.796;10.952;2023-03-23T01:49:55;13.10;99.90
10883;DHT22;5494;51.796;10.952;2023-03-23T01:52:42;13.10;99.90
10883;DHT22;5494;51.796;10.952;2023-03-23T01:55:31;13.10;99.90
10883;DHT22;5494;51.796;10.952;2023-03-23T01:58:21;13.00;99.90
10883;DHT22;5494;51.796;10.952;2023-03-23T02:01:14;13.00;99.90
10883;DHT22;5494;51.796;10.952;2023-03-23T02:04:03;13.00;99.90
10883;DHT22;5494;51.796;10.952;2023-03-23T02:06:52;13.00;99.90
10883;DHT22;5494;51.796;10.952;2023-03-23T02:09:42;13.00;99.90
10883;DHT22;5494;51.796;10.952;2023-03-23T02:12:30;13.00;99.90
10883;DHT22;5494;51.796;10.952;2023-03-23T02:15:17;12.90;99.90
10883;DHT22;5494;51.796;10.952;2023-03-23T02:18:10;12.80;99.90
10883;DHT22;5494;51.796;10.952;2023-03-23T02:21:35;12.80;99.90
10883;DHT22;5494;51.796;10.952;2023-03-23T02:25:12;12.60;99.90
10883;DHT22;5494;51.796;10.952;2023-03-23T02:28:37;12.60;99.90
10883;DHT22;5494;51.796;10.952;2023-03-23T02:31:58;12.50;99.90
10883;DHT22;5494;51.796;10.952;2023-03-23T02:35:03;12.40;99.90
10883;DHT22;5494;51.796;10.952;2023-03-23T02:37:58;12.40;99.90
10883;DHT22;5494;51.796;10.952;2023-03-23T02:40:50;12.30;99.90
10883;DHT22;5494;51.796;10.952;2023-03-23T02:43:41;12.30;99.90
10883;DHT22;5494;51.796;10.952;2023-03-23T02:46:32;12.20;99.90
10883;DHT22;5494;51.796;10.952;2023-03-23T02:49:24;12.30;99.90
10883;DHT22;5494;51.796;10.952;2023-03-23T02:52:18;12.30;99.90
10883;DHT22;5494;51.796;10.952;2023-03-23T02:55:09;12.30;99.90
10883;DHT22;5494;51.796;10.952;2023-03-23T02:58:00;12.20;99.90
10883;DHT22;5494;51.796;10.952;2023-03-23T03:00:49;12.30;99.90
10883;DHT22;5494;51.796;10.952;2023-03-23T03:03:39;12.30;99.90
10883;DHT22;5494;51.796;10.952;2023-03-23T03:06:34;12.30;99.90
10883;DHT22;5494;51.796;10.952;2023-03-23T03:09:33;12.20;99.90
10883;DHT22;5494;51.796;10.952;2023-03-23T03:12:34;12.20;99.90
10883;DHT22;5494;51.796;10.952;2023-03-23T03:15:34;12.20;99.90
10883;DHT22;5494;51.796;10.952;2023-03-23T03:18:27;12.20;99.90
10883;DHT22;5494;51.796;10.952;2023-03-23T03:21:21;12.30;99.90
10883;DHT22;5494;51.796;10.952;2023-03-23T03:24:17;12.20;99.90
10883;DHT22;5494;51.796;10.952;2023-03-23T03:27:13;12.10;99.90
10883;DHT22;5494;51.796;10.952;2023-03-23T03:30:10;12.10;99.90
10883;DHT22;5494;51.796;10.952;2023-03-23T03:33:03;12.10;99.90
10883;DHT22;5494;51.796;10.952;2023-03-23T03:35:52;12.10;99.90
10883;DHT22;5494;51.796;10.952;2023-03-23T03:38:42;12.20;99.90
10883;DHT22;5494;51.796;10.952;2023-03-23T03:41:30;12.20;99.90
10883;DHT22;5494;51.796;10.952;2023-03-23T03:44:19;12.20;99.90
10883;DHT22;5494;51.796;10.952;2023-03-23T03:47:06;12.20;99.90
10883;DHT22;5494;51.796;10.952;2023-03-23T03:49:54;12.30;99.90
10883;DHT22;5494;51.796;10.952;2023-03-23T03:52:41;12.30;99.90
10883;DHT22;5494;51.796;10.952;2023-03-23T03:55:29;12.30;99.90
10883;DHT22;5494;51.796;10.952;2023-03-23T03:58:21;12.20;99.90
10883;DHT22;5494;51.796;10.952;2023-03-23T04:01:36;12.20;99.90
10883;DHT22;5494;51.796;10.952;2023-03-23T04:04:23;12.20;99.90
10883;DHT22;5494;51.796;10.952;2023-03-23T04:07:11;12.20;99.90
10883;DHT22;5494;51.796;10.952;2023-03-23T04:09:59;12.20;99.90
10883;DHT22;5494;51.796;10.952;2023-03-23T04:12:46;12.10;99.90
10883;DHT22;5494;51.796;10.952;2023-03-23T04:15:52;12.10;99.90
10883;DHT22;5494;51.796;10.952;2023-03-23T04:18:41;12.10;99.90
10883;DHT22;5494;51.796;10.952;2023-03-23T04:21:29;12.10;99.90
10883;DHT22;5494;51.796;10.952;2023-03-23T04:24:17;12.00;99.90
10883;DHT22;5494;51.796;10.952;2023-03-23T04:27:08;12.00;99.90
10883;DHT22;5494;51.796;10.952;2023-03-23T04:29:55;12.00;99.90
10883;DHT22;5494;51.796;10.952;2023-03-23T04:33:03;12.00;99.90
10883;DHT22;5494;51.796;10.952;2023-03-23T04:35:52;11.90;99.90
10883;DHT22;5494;51.796;10.952;2023-03-23T04:39:03;11.90;99.90
10883;DHT22;5494;51.796;10.952;2023-03-23T04:41:54;11.90;99.90
10883;DHT22;5494;51.796;10.952;2023-03-23T04:44:45;11.90;99.90
10883;DHT22;5494;51.796;10.952;2023-03-23T04:47:41;11.90;99.90
10883;DHT22;5494;51.796;10.952;2023-03-23T04:50:41;11.80;99.90
10883;DHT22;5494;51.796;10.952;2023-03-23T04:53:38;11.80;99.90
10883;DHT22;5494;51.796;10.952;2023-03-23T04:56:26;11.80;99.90
10883;DHT22;5494;51.796;10.952;2023-03-23T04:59:15;11.80;99.90
10883;DHT22;5494;51.796;10.952;2023-03-23T05:02:13;11.80;99.90
10883;DHT22;5494;51.796;10.952;2023-03-23T05:05:04;11.80;99.90
10883;DHT22;5494;51.796;10.952;2023-03-23T05:07:52;11.70;99.90
10883;DHT22;5494;51.796;10.952;2023-03-23T05:10:50;11.70;99.90
10883;DHT22;5494;51.796;10.952;2023-03-23T05:13:41;11.70;99.90
10883;DHT22;5494;51.796;10.952;2023-03-23T05:16:31;11.70;99.90
10883;DHT22;5494;51.796;10.952;2023-03-23T05:19:18;11.70;99.90
10883;DHT22;5494;51.796;10.952;2023-03-23T05:22:06;11.70;99.90
10883;DHT22;5494;51.796;10.952;2023-03-23T05:25:06;11.70;99.90
10883;DHT22;5494;51.796;10.952;2023-03-23T05:27:59;11.70;99.90
10883;DHT22;5494;51.796;10.952;2023-03-23T05:31:07;11.70;99.90
10883;DHT22;5494;51.796;10.952;2023-03-23T05:33:54;11.60;99.90
10883;DHT22;5494;51.796;10.952;2023-03-23T05:36:50;11.60;99.90
10883;DHT22;5494;51.796;10.952;2023-03-23T05:39:46;11.50;99.90
10883;DHT22;5494;51.796;10.952;2023-03-23T05:42:53;11.50;99.90
10883;DHT22;5494;51.796;10.952;2023-03-23T05:45:51;11.50;99.90
10883;DHT22;5494;51.796;10.952;2023-03-23T05:48:39;11.50;99.90
10883;DHT22;5494;51.796;10.952;2023-03-23T05:51:31;11.50;99.90
10883;DHT22;5494;51.796;10.952;2023-03-23T05:54:19;11.50;99.90
10883;DHT22;5494;51.796;10.952;2023-03-23T05:57:08;11.50;99.90
10883;DHT22;5494;51.796;10.952;2023-03-23T06:00:02;11.40;99.90
10883;DHT22;5494;51.796;10.952;2023-03-23T06:03:02;11.40;99.90
10883;DHT22;5494;51.796;10.952;2023-03-23T06:06:10;11.40;99.90
10883;DHT22;5494;51.796;10.952;2023-03-23T06:09:09;11.40;99.90
10883;DHT22;5494;51.796;10.952;2023-03-23T06:12:14;11.30;99.90
10883;DHT22;5494;51.796;10.952;2023-03-23T06:15:24;11.30;99.90
10883;DHT22;5494;51.796;10.952;2023-03-23T06:18:45;11.40;99.90
10883;DHT22;5494;51.796;10.952;2023-03-23T06:21:39;11.30;99.90
10883;DHT22;5494;51.796;10.952;2023-03-23T06:24:59;11.40;99.90
10883;DHT22;5494;51.796;10.952;2023-03-23T06:27:54;11.40;99.90
10883;DHT22;5494;51.796;10.952;2023-03-23T06:30:41;11.50;99.90
10883;DHT22;5494;51.796;10.952;2023-03-23T06:33:29;11.50;99.90
10883;DHT22;5494;51.796;10.952;2023-03-23T06:36:37;11.50;99.90
10883;DHT22;5494;51.796;10.952;2023-03-23T06:39:36;11.50;99.90
10883;DHT22;5494;51.796;10.952;2023-03-23T06:56:10;13.20;99.90
10883;DHT22;5494;51.796;10.952;2023-03-23T07:04:10;12.00;99.90
10883;DHT22;5494;51.796;10.952;2023-03-23T07:07:08;12.00;99.90
10883;DHT22;5494;51.796;10.952;2023-03-23T07:10:08;12.00;99.90
10883;DHT22;5494;51.796;10.952;2023-03-23T07:12:58;12.10;99.90
10883;DHT22;5494;51.796;10.952;2023-03-23T07:15:49;12.20;99.90
10883;DHT22;5494;51.796;10.952;2023-03-23T07:18:37;12.20;99.90
10883;DHT22;5494;51.796;10.952;2023-03-23T07:21:25;12.20;99.90
10883;DHT22;5494;51.796;10.952;2023-03-23T07:24:14;12.20;99.90
10883;DHT22;5494;51.796;10.952;2023-03-23T07:27:13;12.20;99.90
10883;DHT22;5494;51.796;10.952;2023-03-23T07:30:04;12.30;99.90
10883;DHT22;5494;51.796;10.952;2023-03-23T07:32:53;12.40;99.90
10883;DHT22;5494;51.796;10.952;2023-03-23T07:35:40;12.50;99.90
10883;DHT22;5494;51.796;10.952;2023-03-23T07:38:33;12.50;99.90
10883;DHT22;5494;51.796;10.952;2023-03-23T07:41:20;12.70;99.90
10883;DHT22;5494;51.796;10.952;2023-03-23T07:44:10;12.70;99.90
10883;DHT22;5494;51.796;10.952;2023-03-23T07:47:02;12.80;99.90
10883;DHT22;5494;51.796;10.952;2023-03-23T07:49:52;12.80;99.90
10883;DHT22;5494;51.796;10.952;2023-03-23T07:52:53;12.80;99.90
10883;DHT22;5494;51.796;10.952;2023-03-23T07:55:42;12.80;99.90
10883;DHT22;5494;51.796;10.952;2023-03-23T07:58:56;12.80;99.90
10883;DHT22;5494;51.796;10.952;2023-03-23T08:01:44;12.80;99.90
10883;DHT22;5494;51.796;10.952;2023-03-23T08:04:51;12.90;99.90
10883;DHT22;5494;51.796;10.952;2023-03-23T16:21:22;15.00;99.90
10883;DHT22;5494;51.796;10.952;2023-03-23T16:24:11;15.30;99.90
10883;DHT22;5494;51.796;10.952;2023-03-23T16:27:03;15.20;99.90
10883;DHT22;5494;51.796;10.952;2023-03-23T16:29:53;15.20;99.90
10883;DHT22;5494;51.796;10.952;2023-03-23T16:32:50;15.20;99.90
10883;DHT22;5494;51.796;10.952;2023-03-23T16:35:42;15.20;99.90
10883;DHT22;5494;51.796;10.952;2023-03-23T16:38:33;15.20;99.90
10883;DHT22;5494;51.796;10.952;2023-03-23T16:41:37;15.20;99.90
10883;DHT22;5494;51.796;10.952;2023-03-23T16:44:32;15.20;99.90
10883;DHT22;5494;51.796;10.952;2023-03-23T16:47:21;15.20;99.90
10883;DHT22;5494;51.796;10.952;2023-03-23T16:50:13;15.10;99.90
10883;DHT22;5494;51.796;10.952;2023-03-23T16:53:07;15.00;99.90
10883;DHT22;5494;51.796;10.952;2023-03-23T16:55:58;15.00;99.90
10883;DHT22;5494;51.796;10.952;2023-03-23T16:58:48;15.00;99.90
10883;DHT22;5494;51.796;10.952;2023-03-23T17:01:37;15.00;99.90
10883;DHT22;5494;51.796;10.952;2023-03-23T17:04:27;15.00;99.90
10883;DHT22;5494;51.796;10.952;2023-03-23T17:07:15;15.00;99.90
10883;DHT22;5494;51.796;10.952;2023-03-23T17:10:08;14.90;99.90
10883;DHT22;5494;51.796;10.952;2023-03-23T17:13:02;14.80;99.90
10883;DHT22;5494;51.796;10.952;2023-03-23T17:15:54;14.70;99.90
10883;DHT22;5494;51.796;10.952;2023-03-23T17:18:45;13.70;99.90
10883;DHT22;5494;51.796;10.952;2023-03-23T17:21:35;14.60;99.90
10883;DHT22;5494;51.796;10.952;2023-03-23T17:24:28;14.50;99.90
10883;DHT22;5494;51.796;10.952;2023-03-23T17:27:19;14.50;99.90
10883;DHT22;5494;51.796;10.952;2023-03-23T17:30:10;14.40;99.90
10883;DHT22;5494;51.796;10.952;2023-03-23T17:32:59;14.50;99.90
10883;DHT22;5494;51.796;10.952;2023-03-23T17:35:48;14.40;99.90
10883;DHT22;5494;51.796;10.952;2023-03-23T17:38:38;14.40;99.90
10883;DHT22;5494;51.796;10.952;2023-03-23T17:41:29;14.30;99.90
10883;DHT22;5494;51.796;10.952;2023-03-23T17:44:17;14.30;99.90
10883;DHT22;5494;51.796;10.952;2023-03-23T17:47:07;14.40;99.90
10883;DHT22;5494;51.796;10.952;2023-03-23T17:50:04;14.30;99.90
10883;DHT22;5494;51.796;10.952;2023-03-23T17:53:00;14.30;99.90
10883;DHT22;5494;51.796;10.952;2023-03-23T17:55:48;14.30;99.90
10883;DHT22;5494;51.796;10.952;2023-03-23T17:58:36;14.30;99.90
10883;DHT22;5494;51.796;10.952;2023-03-23T18:01:25;14.20;99.90
10883;DHT22;5494;51.796;10.952;2023-03-23T18:04:15;14.20;99.90
10883;DHT22;5494;51.796;10.952;2023-03-23T18:07:04;14.10;99.90
10883;DHT22;5494;51.796;10.952;2023-03-23T18:09:56;14.10;99.90
10883;DHT22;5494;51.796;10.952;2023-03-23T18:12:48;14.10;99.90
10883;DHT22;5494;51.796;10.952;2023-03-23T18:15:36;14.00;99.90
10883;DHT22;5494;51.796;10.952;2023-03-23T18:18:25;13.90;99.90
10883;DHT22;5494;51.796;10.952;2023-03-23T18:21:15;13.90;99.90
10883;DHT22;5494;51.796;10.952;2023-03-23T18:24:04;14.00;99.90
10883;DHT22;5494;51.796;10.952;2023-03-23T18:26:54;13.90;99.90
10883;DHT22;5494;51.796;10.952;2023-03-23T18:29:43;13.90;99.90
10883;DHT22;5494;51.796;10.952;2023-03-23T18:32:34;13.90;99.90
10883;DHT22;5494;51.796;10.952;2023-03-23T18:35:23;14.10;99.90
10883;DHT22;5494;51.796;10.952;2023-03-23T18:38:13;14.00;99.90
10883;DHT22;5494;51.796;10.952;2023-03-23T18:41:05;13.90;99.90
10883;DHT22;5494;51.796;10.952;2023-03-23T18:43:53;13.80;99.90
10883;DHT22;5494;51.796;10.952;2023-03-23T18:46:43;13.80;99.90
10883;DHT22;5494;51.796;10.952;2023-03-23T18:49:32;13.80;99.90
10883;DHT22;5494;51.796;10.952;2023-03-23T18:52:20;13.80;99.90
10883;DHT22;5494;51.796;10.952;2023-03-23T18:55:13;13.80;99.90
10883;DHT22;5494;51.796;10.952;2023-03-23T18:58:01;13.80;99.90
10883;DHT22;5494;51.796;10.952;2023-03-23T19:00:55;13.90;99.90
10883;DHT22;5494;51.796;10.952;2023-03-23T19:03:44;13.90;99.90
10883;DHT22;5494;51.796;10.952;2023-03-23T19:06:33;13.90;99.90
10883;DHT22;5494;51.796;10.952;2023-03-23T19:09:22;13.80;99.90
10883;DHT22;5494;51.796;10.952;2023-03-23T19:12:12;13.90;99.90
10883;DHT22;5494;51.796;10.952;2023-03-23T19:15:02;12.40;99.90
10883;DHT22;5494;51.796;10.952;2023-03-23T19:17:51;13.80;99.90
10883;DHT22;5494;51.796;10.952;2023-03-23T19:20:42;13.90;99.90
10883;DHT22;5494;51.796;10.952;2023-03-23T19:23:53;14.10;99.90
10883;DHT22;5494;51.796;10.952;2023-03-23T19:26:43;13.80;99.90
10883;DHT22;5494;51.796;10.952;2023-03-23T19:29:34;13.80;99.90
10883;DHT22;5494;51.796;10.952;2023-03-23T19:32:22;13.90;99.90
10883;DHT22;5494;51.796;10.952;2023-03-23T19:35:11;13.80;99.90
10883;DHT22;5494;51.796;10.952;2023-03-23T19:37:59;13.80;99.90
10883;DHT22;5494;51.796;10.952;2023-03-23T19:40:49;13.90;99.90
10883;DHT22;5494;51.796;10.952;2023-03-23T19:43:41;13.90;99.90
10883;DHT22;5494;51.796;10.952;2023-03-23T19:46:31;13.80;99.90
10883;DHT22;5494;51.796;10.952;2023-03-23T19:49:19;13.80;99.90
10883;DHT22;5494;51.796;10.952;2023-03-23T19:52:08;13.70;99.90
10883;DHT22;5494;51.796;10.952;2023-03-23T19:55:00;13.80;99.90
10883;DHT22;5494;51.796;10.952;2023-03-23T19:57:49;13.80;99.90
10883;DHT22;5494;51.796;10.952;2023-03-23T20:00:38;13.70;99.90
10883;DHT22;5494;51.796;10.952;2023-03-23T20:03:28;13.60;99.90
10883;DHT22;5494;51.796;10.952;2023-03-23T20:06:17;13.60;99.90
10883;DHT22;5494;51.796;10.952;2023-03-23T20:09:06;13.50;99.90
10883;DHT22;5494;51.796;10.952;2023-03-23T20:11:55;13.50;99.90
10883;DHT22;5494;51.796;10.952;2023-03-23T20:14:43;13.50;99.90
10883;DHT22;5494;51.796;10.952;2023-03-23T20:17:32;13.40;99.90
10883;DHT22;5494;51.796;10.952;2023-03-23T20:20:23;13.30;99.90
10883;DHT22;5494;51.796;10.952;2023-03-23T20:23:12;13.20;99.90
10883;DHT22;5494;51.796;10.952;2023-03-23T20:26:02;13.30;99.90
10883;DHT22;5494;51.796;10.952;2023-03-23T20:28:53;12.90;99.90
10883;DHT22;5494;51.796;10.952;2023-03-23T20:31:41;13.20;99.90
10883;DHT22;5494;51.796;10.952;2023-03-23T20:34:32;13.10;99.90
10883;DHT22;5494;51.796;10.952;2023-03-23T20:37:23;13.10;99.90
10883;DHT22;5494;51.796;10.952;2023-03-23T20:40:12;13.00;99.90
10883;DHT22;5494;51.796;10.952;2023-03-23T20:43:01;12.90;99.90
10883;DHT22;5494;51.796;10.952;2023-03-23T20:45:49;12.80;99.90
10883;DHT22;5494;51.796;10.952;2023-03-23T20:48:38;12.70;99.90
10883;DHT22;5494;51.796;10.952;2023-03-23T20:51:27;12.60;99.90
10883;DHT22;5494;51.796;10.952;2023-03-23T20:54:20;12.50;99.90
10883;DHT22;5494;51.796;10.952;2023-03-23T20:57:10;12.40;99.90
10883;DHT22;5494;51.796;10.952;2023-03-23T20:59:59;12.30;99.90
10883;DHT22;5494;51.796;10.952;2023-03-23T21:02:49;12.30;99.90
10883;DHT22;5494;51.796;10.952;2023-03-23T21:05:40;12.20;99.90
10883;DHT22;5494;51.796;10.952;2023-03-23T21:08:29;12.20;99.90
10883;DHT22;5494;51.796;10.952;2023-03-23T21:11:21;12.10;99.90
10883;DHT22;5494;51.796;10.952;2023-03-23T21:14:12;12.00;99.90
10883;DHT22;5494;51.796;10.952;2023-03-23T21:17:00;11.90;99.90
10883;DHT22;5494;51.796;10.952;2023-03-23T21:19:49;11.90;99.90
10883;DHT22;5494;51.796;10.952;2023-03-23T21:22:38;11.90;99.90
10883;DHT22;5494;51.796;10.952;2023-03-23T21:25:26;11.90;99.90
10883;DHT22;5494;51.796;10.952;2023-03-23T21:28:22;11.90;99.90
10883;DHT22;5494;51.796;10.952;2023-03-23T21:31:12;11.90;99.90
10883;DHT22;5494;51.796;10.952;2023-03-23T21:34:01;11.90;99.90
10883;DHT22;5494;51.796;10.952;2023-03-23T21:36:50;11.90;99.90
10883;DHT22;5494;51.796;10.952;2023-03-23T21:39:39;12.00;99.90
10883;DHT22;5494;51.796;10.952;2023-03-23T21:42:27;12.00;99.90
10883;DHT22;5494;51.796;10.952;2023-03-23T21:45:18;11.90;99.90
10883;DHT22;5494;51.796;10.952;2023-03-23T21:48:08;13.00;99.90
10883;DHT22;5494;51.796;10.952;2023-03-23T21:51:03;13.00;99.90
10883;DHT22;5494;51.796;10.952;2023-03-23T21:53:54;11.80;99.90
10883;DHT22;5494;51.796;10.952;2023-03-23T21:56:43;11.80;99.90
10883;DHT22;5494;51.796;10.952;2023-03-23T21:59:32;11.80;99.90
10883;DHT22;5494;51.796;10.952;2023-03-23T22:02:22;11.70;99.90
10883;DHT22;5494;51.796;10.952;2023-03-23T22:05:11;11.70;99.90
10883;DHT22;5494;51.796;10.952;2023-03-23T22:07:59;11.70;99.90
10883;DHT22;5494;51.796;10.952;2023-03-23T22:10:48;11.70;99.90
10883;DHT22;5494;51.796;10.952;2023-03-23T22:13:47;11.70;99.90
10883;DHT22;5494;51.796;10.952;2023-03-23T22:16:36;11.60;99.90
10883;DHT22;5494;51.796;10.952;2023-03-23T22:19:26;11.70;99.90
10883;DHT22;5494;51.796;10.952;2023-03-23T22:22:14;11.90;99.90
10883;DHT22;5494;51.796;10.952;2023-03-23T22:25:03;11.90;99.90
10883;DHT22;5494;51.796;10.952;2023-03-23T22:27:52;12.00;99.90
10883;DHT22;5494;51.796;10.952;2023-03-23T22:30:41;11.90;99.90
10883;DHT22;5494;51.796;10.952;2023-03-23T22:33:30;12.00;99.90
10883;DHT22;5494;51.796;10.952;2023-03-23T22:36:21;12.00;99.90
10883;DHT22;5494;51.796;10.952;2023-03-23T22:39:10;12.00;99.90
10883;DHT22;5494;51.796;10.952;2023-03-23T22:41:59;12.00;99.90
10883;DHT22;5494;51.796;10.952;2023-03-23T22:44:47;12.10;99.90
10883;DHT22;5494;51.796;10.952;2023-03-23T22:47:36;12.00;99.90
10883;DHT22;5494;51.796;10.952;2023-03-23T22:50:25;11.90;99.90
10883;DHT22;5494;51.796;10.952;2023-03-23T22:53:15;12.00;99.90
10883;DHT22;5494;51.796;10.952;2023-03-23T22:56:05;11.90;99.90
10883;DHT22;5494;51.796;10.952;2023-03-23T22:58:54;11.90;99.90
10883;DHT22;5494;51.796;10.952;2023-03-23T23:01:45;11.90;99.90
10883;DHT22;5494;51.796;10.952;2023-03-23T23:04:34;11.90;99.90
10883;DHT22;5494;51.796;10.952;2023-03-23T23:07:23;11.80;99.90
10883;DHT22;5494;51.796;10.952;2023-03-23T23:10:12;11.90;99.90
10883;DHT22;5494;51.796;10.952;2023-03-23T23:13:01;11.80;99.90
10883;DHT22;5494;51.796;10.952;2023-03-23T23:15:51;11.80;99.90
10883;DHT22;5494;51.796;10.952;2023-03-23T23:18:40;11.80;99.90
10883;DHT22;5494;51.796;10.952;2023-03-23T23:21:28;11.80;99.90
10883;DHT22;5494;51.796;10.952;2023-03-23T23:24:16;11.80;99.90
10883;DHT22;5494;51.796;10.952;2023-03-23T23:27:06;11.90;99.90
10883;DHT22;5494;51.796;10.952;2023-03-23T23:29:54;11.80;99.90
10883;DHT22;5494;51.796;10.952;2023-03-23T23:32:43;11.80;99.90
10883;DHT22;5494;51.796;10.952;2023-03-23T23:35:32;11.90;99.90
10883;DHT22;5494;51.796;10.952;2023-03-23T23:38:20;11.90;99.90
10883;DHT22;5494;51.796;10.952;2023-03-23T23:41:08;11.80;99.90
10883;DHT22;5494;51.796;10.952;2023-03-23T23:43:59;11.80;99.90
10883;DHT22;5494;51.796;10.952;2023-03-23T23:46:47;11.80;99.90
10883;DHT22;5494;51.796;10.952;2023-03-23T23:49:35;11.90;99.90
10883;DHT22;5494;51.796;10.952;2023-03-23T23:52:24;11.90;99.90
10883;DHT22;5494;51.796;10.952;2023-03-23T23:55:13;11.90;99.90
10883;DHT22;5494;51.796;10.952;2023-03-23T23:58:02;12.00;99.90
